地図

経路データ

SID SEASON NUMBER BASIN SUBBASIN NAME ISO_TIME NATURE LAT LON WMO_WIND WMO_PRES WMO_AGENCY TRACK_TYPE DIST2LAND LANDFALL IFLAG USA_AGENCY USA_ATCF_ID USA_LAT USA_LON USA_RECORD USA_STATUS USA_WIND USA_PRES USA_SSHS USA_R34_NE USA_R34_SE USA_R34_SW USA_R34_NW USA_R50_NE USA_R50_SE USA_R50_SW USA_R50_NW USA_R64_NE USA_R64_SE USA_R64_SW USA_R64_NW USA_POCI USA_ROCI USA_RMW USA_EYE TOKYO_LAT TOKYO_LON TOKYO_GRADE TOKYO_WIND TOKYO_PRES TOKYO_R50_DIR TOKYO_R50_LONG TOKYO_R50_SHORT TOKYO_R30_DIR TOKYO_R30_LONG TOKYO_R30_SHORT TOKYO_LAND CMA_LAT CMA_LON CMA_CAT CMA_WIND CMA_PRES HKO_LAT HKO_LON HKO_CAT HKO_WIND HKO_PRES NEWDELHI_LAT NEWDELHI_LON NEWDELHI_GRADE NEWDELHI_WIND NEWDELHI_PRES NEWDELHI_CI NEWDELHI_DP NEWDELHI_POCI REUNION_LAT REUNION_LON REUNION_TYPE REUNION_WIND REUNION_PRES REUNION_TNUM REUNION_CI REUNION_RMW REUNION_R34_NE REUNION_R34_SE REUNION_R34_SW REUNION_R34_NW REUNION_R50_NE REUNION_R50_SE REUNION_R50_SW REUNION_R50_NW REUNION_R64_NE REUNION_R64_SE REUNION_R64_SW REUNION_R64_NW BOM_LAT BOM_LON BOM_TYPE BOM_WIND BOM_PRES BOM_TNUM BOM_CI BOM_RMW BOM_R34_NE BOM_R34_SE BOM_R34_SW BOM_R34_NW BOM_R50_NE BOM_R50_SE BOM_R50_SW BOM_R50_NW BOM_R64_NE BOM_R64_SE BOM_R64_SW BOM_R64_NW BOM_ROCI BOM_POCI BOM_EYE BOM_POS_METHOD BOM_PRES_METHOD NADI_LAT NADI_LON NADI_CAT NADI_WIND NADI_PRES WELLINGTON_LAT WELLINGTON_LON WELLINGTON_WIND WELLINGTON_PRES DS824_LAT DS824_LON DS824_STAGE DS824_WIND DS824_PRES TD9636_LAT TD9636_LON TD9636_STAGE TD9636_WIND TD9636_PRES TD9635_LAT TD9635_LON TD9635_WIND TD9635_PRES TD9635_ROCI NEUMANN_LAT NEUMANN_LON NEUMANN_CLASS NEUMANN_WIND NEUMANN_PRES MLC_LAT MLC_LON MLC_CLASS MLC_WIND MLC_PRES USA_GUST BOM_GUST BOM_GUST_PER REUNION_GUST REUNION_GUST_PER USA_SEAHGT USA_SEARAD_NE USA_SEARAD_SE USA_SEARAD_SW USA_SEARAD_NW STORM_SPEED STORM_DIR
1939216N33143 1939 46 WP MM NOT_NAMED 1939-08-04 09:00:00 NR 33.4000 143.000 main 311 275 __________O___ -1 33.4000 143.000 7 7 327
1939216N33143 1939 46 WP MM NOT_NAMED 1939-08-04 12:00:00 NR 33.6822 142.785 main 275 247 __________P___ -1 33.6822 142.785 7 7 327
1939216N33143 1939 46 WP MM NOT_NAMED 1939-08-04 15:00:00 NR 33.9614 142.565 main 241 213 __________P___ -1 33.9614 142.565 7 7 326
1939216N33143 1939 46 WP MM NOT_NAMED 1939-08-04 18:00:00 NR 34.2349 142.338 main 206 172 __________P___ -1 34.2349 142.338 7 7 325
1939216N33143 1939 46 WP MM NOT_NAMED 1939-08-04 21:00:00 NR 34.5000 142.100 main 172 143 __________O___ -1 34.5000 142.100 4 7 322
1939216N33143 1939 46 WP MM NOT_NAMED 1939-08-05 00:00:00 NR 34.7614 141.843 main 129 100 __________P___ -1 34.7614 141.843 4 7 320
1939216N33143 1939 46 WP MM NOT_NAMED 1939-08-05 03:00:00 NR 35.0540 141.534 main 86 43 __________P___ -1 35.0540 141.534 4 9 319
1939216N33143 1939 46 WP MM NOT_NAMED 1939-08-05 06:00:00 NR 35.4197 141.134 main 37 0 __________P___ -1 35.4197 141.134 4 11 318
1939216N33143 1939 46 WP MM NOT_NAMED 1939-08-05 09:00:00 NR 35.9000 140.600 main 0 0 __________O___ -1 35.9000 140.600 4 16 317
1939216N33143 1939 46 WP MM NOT_NAMED 1939-08-05 12:00:00 NR 36.6151 139.749 main 0 0 __________P___ -1 36.6151 139.749 4 21 316
1939216N33143 1939 46 WP MM NOT_NAMED 1939-08-05 15:00:00 NR 37.4254 138.771 main 0 0 __________P___ -1 37.4254 138.771 4 22 317
1939216N33143 1939 46 WP MM NOT_NAMED 1939-08-05 18:00:00 NR 38.2216 137.830 main 98 98 __________P___ -1 38.2216 137.830 4 20 318
1939216N33143 1939 46 WP MM NOT_NAMED 1939-08-05 21:00:00 NR 38.9000 137.100 main 167 167 __________O___ -1 38.9000 137.100 4 13 322
1939216N33143 1939 46 WP MM NOT_NAMED 1939-08-06 00:00:00 NR 39.2799 136.761 main 211 211 __________P___ -1 39.2799 136.761 4 7 333
1939216N33143 1939 46 WP MM NOT_NAMED 1939-08-06 03:00:00 NR 39.5469 136.674 main 233 233 __________P___ -1 39.5469 136.674 4 5 2
1939216N33143 1939 46 WP MM NOT_NAMED 1939-08-06 06:00:00 NR 39.7908 136.776 main 247 229 __________P___ -1 39.7908 136.776 4 6 24
1939216N33143 1939 46 WP MM NOT_NAMED 1939-08-06 09:00:00 NR 40.1000 137.000 main 230 221 __________O___ -1 40.1000 137.000 4 9 21
1939216N33143 1939 46 WP MM NOT_NAMED 1939-08-06 12:00:00 NR 40.6650 137.213 main 227 208 __________P___ -1 40.6650 137.213 4 13 19
1939216N33143 1939 46 WP MM NOT_NAMED 1939-08-06 15:00:00 NR 41.2949 137.535 main 208 162 __________P___ -1 41.2949 137.535 4 14 24
1939216N33143 1939 46 WP MM NOT_NAMED 1939-08-06 18:00:00 NR 41.9024 137.941 main 162 114 __________P___ -1 41.9024 137.941 4 13 30
1939216N33143 1939 46 WP MM NOT_NAMED 1939-08-06 21:00:00 NR 42.4000 138.400 main 114 90 __________O___ -1 42.4000 138.400 4 10 34
1939216N33143 1939 46 WP MM NOT_NAMED 1939-08-07 00:00:00 NR 42.7173 138.699 main 90 73 __________P___ -1 42.7173 138.699 4 7 44
1939216N33143 1939 46 WP MM NOT_NAMED 1939-08-07 03:00:00 NR 42.9118 139.061 main 66 46 __________P___ -1 42.9118 139.061 4 7 67
1939216N33143 1939 46 WP MM NOT_NAMED 1939-08-07 06:00:00 NR 43.0010 139.593 main 46 13 __________P___ -1 43.0010 139.593 4 10 85
1939216N33143 1939 46 WP MM NOT_NAMED 1939-08-07 09:00:00 NR 43.0000 140.400 main 8 0 __________O___ -1 43.0000 140.400 4 15 95
1939216N33143 1939 46 WP MM NOT_NAMED 1939-08-07 12:00:00 NR 42.8656 141.576 main 0 0 __________P___ -1 42.8656 141.576 4 19 100
1939216N33143 1939 46 WP MM NOT_NAMED 1939-08-07 15:00:00 NR 42.6468 143.018 main 0 0 __________P___ -1 42.6468 143.018 4 23 101
1939216N33143 1939 46 WP MM NOT_NAMED 1939-08-07 18:00:00 NR 42.4285 144.623 main 57 55 __________P___ -1 42.4285 144.623 4 24 98
1939216N33143 1939 46 WP MM NOT_NAMED 1939-08-07 21:00:00 NR 42.3000 146.300 main 119 119 __________O___ -1 42.3000 146.300 4 25 92
1939216N33143 1939 46 WP MM NOT_NAMED 1939-08-08 00:00:00 NR 42.3303 147.984 main 224 224 __________P___ -1 42.3303 147.984 4 25 86
1939216N33143 1939 46 WP MM NOT_NAMED 1939-08-08 03:00:00 NR 42.4920 149.674 main 306 306 __________P___ -1 42.4920 149.674 4 25 81
1939216N33143 1939 46 WP MM NOT_NAMED 1939-08-08 06:00:00 NR 42.7328 151.378 main 349 345 __________P___ -1 42.7328 151.378 4 26 79
1939216N33143 1939 46 WP MM NOT_NAMED 1939-08-08 09:00:00 NR 43.0000 153.100 main 395 __________O___ -1 43.0000 153.100 4 26 78

デジタル台風データ・検索

IBTrACS Databaseについて

本データベースは、米国NOAAが公開する1842年以降の世界の熱帯低気圧のベストトラックデータアーカイブInternational Best Track Archive for Climate Stewardship (IBTrACS)を、ウェブで閲覧しやすい形式に変換したものです。

最終更新日:2021-10-21